createdAt,value
2017-08-31T00:01:53.003Z,69.60
2017-08-31T00:04:20.954Z,69.38
2017-08-31T00:06:48.140Z,69.23
2017-08-31T00:09:16.442Z,69.09
2017-08-31T00:11:43.598Z,68.92
2017-08-31T00:14:10.749Z,68.78
2017-08-31T00:16:37.912Z,68.61
2017-08-31T00:19:05.139Z,68.49
2017-08-31T00:21:32.306Z,68.35
2017-08-31T00:23:59.458Z,68.21
2017-08-31T00:26:26.605Z,68.07
2017-08-31T00:28:53.756Z,67.95
2017-08-31T00:31:20.923Z,67.85
2017-08-31T00:33:48.120Z,67.83
2017-08-31T00:36:15.302Z,68.10
2017-08-31T00:38:42.477Z,68.29
2017-08-31T00:41:09.640Z,68.40
2017-08-31T00:43:37.588Z,68.58
2017-08-31T00:46:04.748Z,68.79
2017-08-31T00:48:31.919Z,69.05
2017-08-31T00:50:59.100Z,69.24
2017-08-31T00:53:26.269Z,69.41
2017-08-31T00:55:53.423Z,69.57
2017-08-31T00:58:20.588Z,69.71
2017-08-31T01:00:47.747Z,69.80
2017-08-31T01:03:14.932Z,69.96
2017-08-31T01:05:42.479Z,70.08
2017-08-31T01:08:09.640Z,70.16
2017-08-31T01:10:36.824Z,70.21
2017-08-31T01:13:03.978Z,70.27
2017-08-31T01:15:31.163Z,70.34
2017-08-31T01:17:58.327Z,70.42
2017-08-31T01:20:25.478Z,70.49
2017-08-31T01:22:52.659Z,70.56
2017-08-31T01:25:19.810Z,70.63
2017-08-31T01:27:46.986Z,70.72
2017-08-31T01:30:14.151Z,70.79
2017-08-31T01:32:41.324Z,70.85
2017-08-31T01:35:08.491Z,70.90
2017-08-31T01:37:35.666Z,70.99
2017-08-31T01:40:02.823Z,71.02
2017-08-31T01:42:30.006Z,71.09
2017-08-31T01:44:57.178Z,71.16
2017-08-31T01:47:24.348Z,71.22
2017-08-31T01:49:51.515Z,71.26
2017-08-31T01:52:18.693Z,71.34
2017-08-31T01:54:45.867Z,71.40
2017-08-31T01:57:13.034Z,71.44
2017-08-31T01:59:40.217Z,71.47
2017-08-31T02:02:07.370Z,71.52
2017-08-31T02:04:34.534Z,71.55
2017-08-31T02:07:01.712Z,71.59
2017-08-31T02:09:28.900Z,71.63
2017-08-31T02:11:56.059Z,71.68
2017-08-31T02:14:23.218Z,71.76
2017-08-31T02:16:50.396Z,71.79
2017-08-31T02:19:17.555Z,71.84
2017-08-31T02:21:44.732Z,71.88
2017-08-31T02:24:12.245Z,71.95
2017-08-31T02:26:39.406Z,72.02
2017-08-31T02:29:06.586Z,72.07
2017-08-31T02:31:33.761Z,72.21
2017-08-31T02:34:00.938Z,72.35
2017-08-31T02:36:28.113Z,72.37
2017-08-31T02:38:55.290Z,72.40
2017-08-31T02:41:22.465Z,72.43
2017-08-31T02:43:49.641Z,72.44
2017-08-31T02:46:16.817Z,72.46
2017-08-31T02:48:44.001Z,72.52
2017-08-31T02:51:11.162Z,72.53
2017-08-31T02:53:38.319Z,72.49
2017-08-31T02:56:05.496Z,72.46
2017-08-31T02:58:32.700Z,72.49
2017-08-31T03:00:59.890Z,72.13
2017-08-31T03:03:27.060Z,71.60
2017-08-31T03:05:54.227Z,71.23
2017-08-31T03:08:21.395Z,70.88
2017-08-31T03:10:48.575Z,70.58
2017-08-31T03:13:15.738Z,70.35
2017-08-31T03:15:42.904Z,70.09
2017-08-31T03:18:10.080Z,69.89
2017-08-31T03:20:37.251Z,69.65
2017-08-31T03:23:04.406Z,69.46
2017-08-31T03:25:32.335Z,69.25
2017-08-31T03:27:59.513Z,69.07
2017-08-31T03:30:26.693Z,68.88
2017-08-31T03:32:53.877Z,68.72
2017-08-31T03:35:21.054Z,68.59
2017-08-31T03:37:48.229Z,68.44
2017-08-31T03:40:15.409Z,68.26
2017-08-31T03:42:42.591Z,68.11
2017-08-31T03:45:09.764Z,67.97
2017-08-31T03:47:36.947Z,67.80
2017-08-31T03:50:04.106Z,67.66
2017-08-31T03:52:31.276Z,67.54
2017-08-31T03:54:58.436Z,67.40
2017-08-31T03:57:25.600Z,67.37
2017-08-31T03:59:52.805Z,67.59
2017-08-31T04:02:19.980Z,67.79
2017-08-31T04:04:47.147Z,67.88
2017-08-31T04:07:14.332Z,68.07
2017-08-31T04:09:41.505Z,68.33
2017-08-31T04:12:08.681Z,68.63
2017-08-31T04:14:35.858Z,68.87
2017-08-31T04:17:03.046Z,69.14
2017-08-31T04:19:30.213Z,69.32
2017-08-31T04:21:57.375Z,69.44
2017-08-31T04:24:25.303Z,69.57
2017-08-31T04:26:52.478Z,69.72
2017-08-31T04:29:19.639Z,69.91
2017-08-31T04:31:46.814Z,70.06
2017-08-31T04:34:13.982Z,70.21
2017-08-31T04:36:41.164Z,70.30
2017-08-31T04:39:08.322Z,70.36
2017-08-31T04:41:35.493Z,70.42
2017-08-31T04:44:02.731Z,70.50
2017-08-31T04:46:29.887Z,70.59
2017-08-31T04:48:57.068Z,70.67
2017-08-31T04:51:24.266Z,70.77
2017-08-31T04:53:51.425Z,70.83
2017-08-31T04:56:18.609Z,70.90
2017-08-31T04:58:45.793Z,70.94
2017-08-31T05:01:12.993Z,70.99
2017-08-31T05:03:40.203Z,71.07
2017-08-31T05:06:07.418Z,71.09
2017-08-31T05:08:34.618Z,71.16
2017-08-31T05:11:01.808Z,71.27
2017-08-31T05:13:29.027Z,71.31
2017-08-31T05:15:56.221Z,71.34
2017-08-31T05:18:23.433Z,71.33
2017-08-31T05:20:50.633Z,71.35
2017-08-31T05:23:17.833Z,71.48
2017-08-31T05:25:45.036Z,71.76
2017-08-31T05:28:12.266Z,72.06
2017-08-31T05:30:39.475Z,72.48
2017-08-31T05:33:06.674Z,72.61
2017-08-31T05:35:33.917Z,72.67
2017-08-31T05:38:01.143Z,73.04
2017-08-31T05:40:28.374Z,72.85
2017-08-31T05:42:55.576Z,72.77
2017-08-31T05:45:22.761Z,72.86
2017-08-31T05:47:49.970Z,72.90
2017-08-31T05:50:17.165Z,72.89
2017-08-31T05:52:44.395Z,72.92
2017-08-31T05:55:11.590Z,72.92
2017-08-31T05:57:38.786Z,72.94
2017-08-31T06:00:06.017Z,72.99
2017-08-31T06:02:33.220Z,73.02
2017-08-31T06:05:00.409Z,72.94
2017-08-31T06:07:27.607Z,73.03
2017-08-31T06:09:54.800Z,72.96
2017-08-31T06:12:21.999Z,72.89
2017-08-31T06:14:49.163Z,72.85
2017-08-31T06:17:16.327Z,72.77
2017-08-31T06:19:43.500Z,72.69
2017-08-31T06:22:10.681Z,72.62
2017-08-31T06:24:37.839Z,72.61
2017-08-31T06:27:05.013Z,72.56
2017-08-31T06:29:32.946Z,72.38
2017-08-31T06:32:00.107Z,72.33
2017-08-31T06:34:27.347Z,72.25
2017-08-31T06:36:54.520Z,72.02
2017-08-31T06:39:21.713Z,71.88
2017-08-31T06:41:48.875Z,71.79
2017-08-31T06:44:16.044Z,71.75
2017-08-31T06:46:43.214Z,71.67
2017-08-31T06:49:10.378Z,71.55
2017-08-31T06:51:37.556Z,71.53
2017-08-31T06:54:04.721Z,71.47
2017-08-31T06:56:31.873Z,71.42
2017-08-31T06:58:59.038Z,71.39
2017-08-31T07:01:26.214Z,71.26
2017-08-31T07:03:53.475Z,71.25
2017-08-31T07:06:20.648Z,71.22
2017-08-31T07:08:47.822Z,71.12
2017-08-31T07:11:14.980Z,71.13
2017-08-31T07:13:42.131Z,71.16
2017-08-31T07:16:09.291Z,70.97
2017-08-31T07:18:37.260Z,70.97
2017-08-31T07:21:04.471Z,70.87
2017-08-31T07:23:31.649Z,70.81
2017-08-31T07:25:58.849Z,70.74
2017-08-31T07:28:26.049Z,70.77
2017-08-31T07:30:53.205Z,70.78
2017-08-31T07:33:20.376Z,70.87
2017-08-31T07:35:47.553Z,70.55
2017-08-31T07:38:14.728Z,70.31
2017-08-31T07:40:41.910Z,70.29
2017-08-31T07:43:09.066Z,70.39
2017-08-31T07:45:36.248Z,70.40
2017-08-31T07:48:03.404Z,70.40
2017-08-31T07:50:30.559Z,70.50
2017-08-31T07:52:57.726Z,70.62
2017-08-31T07:55:24.902Z,70.67
2017-08-31T07:57:52.106Z,70.75
2017-08-31T08:00:19.293Z,70.86
2017-08-31T08:02:46.480Z,70.96
2017-08-31T08:05:13.653Z,71.05
2017-08-31T08:07:40.810Z,71.12
2017-08-31T08:10:07.985Z,71.21
2017-08-31T08:12:35.142Z,71.23
2017-08-31T08:15:02.308Z,71.27
2017-08-31T08:17:29.477Z,71.32
2017-08-31T08:19:56.636Z,71.44
2017-08-31T08:22:23.814Z,71.50
2017-08-31T08:24:50.983Z,71.49
2017-08-31T08:27:18.513Z,71.48
2017-08-31T08:29:45.717Z,71.48
2017-08-31T08:32:12.868Z,71.48
2017-08-31T08:34:40.050Z,71.49
2017-08-31T08:37:07.226Z,71.49
2017-08-31T08:39:34.411Z,71.47
2017-08-31T08:42:01.584Z,71.45
2017-08-31T08:44:28.738Z,71.42
2017-08-31T08:46:55.899Z,71.44
2017-08-31T08:49:23.873Z,71.45
2017-08-31T08:51:51.064Z,71.46
2017-08-31T08:54:18.215Z,71.47
2017-08-31T08:56:45.366Z,71.47
2017-08-31T08:59:12.541Z,71.46
2017-08-31T09:01:39.703Z,71.46
2017-08-31T09:04:06.858Z,71.48
2017-08-31T09:06:34.023Z,71.47
2017-08-31T09:09:01.213Z,71.47
2017-08-31T09:11:28.423Z,71.47
2017-08-31T09:13:55.620Z,71.47
2017-08-31T09:16:22.797Z,71.48
2017-08-31T09:18:49.964Z,71.48
2017-08-31T09:21:17.134Z,71.48
2017-08-31T09:23:44.293Z,71.47
2017-08-31T09:26:11.468Z,71.49
2017-08-31T09:28:38.646Z,71.48
2017-08-31T09:31:05.815Z,71.46
2017-08-31T09:33:32.982Z,71.45
2017-08-31T09:36:00.919Z,71.49
2017-08-31T09:38:28.121Z,71.51
2017-08-31T09:40:55.293Z,71.49
2017-08-31T09:43:22.451Z,71.49
2017-08-31T09:45:49.625Z,71.52
2017-08-31T09:48:16.778Z,71.51
2017-08-31T09:50:43.971Z,71.50
2017-08-31T09:53:11.153Z,71.51
2017-08-31T09:55:38.349Z,71.52
2017-08-31T09:58:05.529Z,71.51
2017-08-31T10:00:32.682Z,71.53
2017-08-31T10:02:59.848Z,71.54
2017-08-31T10:05:27.034Z,71.53
2017-08-31T10:07:54.216Z,71.53
2017-08-31T10:10:21.384Z,71.54
2017-08-31T10:12:48.552Z,71.54
2017-08-31T10:15:15.707Z,71.55
2017-08-31T10:17:42.858Z,71.54
2017-08-31T10:20:10.011Z,71.55
2017-08-31T10:22:37.169Z,71.55
2017-08-31T10:25:04.328Z,71.55
2017-08-31T10:27:31.538Z,71.56
2017-08-31T10:29:58.736Z,71.56
2017-08-31T10:32:25.941Z,71.58
2017-08-31T10:34:53.136Z,71.55
2017-08-31T10:37:20.331Z,71.54
2017-08-31T10:39:47.535Z,71.56
2017-08-31T10:42:14.750Z,71.56
2017-08-31T10:44:41.958Z,71.55
2017-08-31T10:47:09.157Z,71.55
2017-08-31T10:49:36.404Z,71.54
2017-08-31T10:52:03.638Z,71.56
2017-08-31T10:54:30.840Z,71.57
2017-08-31T10:56:58.022Z,71.57
2017-08-31T10:59:25.229Z,71.57
2017-08-31T11:01:52.428Z,71.56
2017-08-31T11:04:19.616Z,71.55
2017-08-31T11:06:46.794Z,71.56
2017-08-31T11:09:14.004Z,71.57
2017-08-31T11:11:41.209Z,71.57
2017-08-31T11:14:08.405Z,71.56
2017-08-31T11:16:35.596Z,71.56
2017-08-31T11:19:02.790Z,71.56
2017-08-31T11:21:30.001Z,71.56
2017-08-31T11:23:57.209Z,71.57
2017-08-31T11:26:24.408Z,71.57
2017-08-31T11:28:51.722Z,71.56
2017-08-31T11:31:18.943Z,71.56
2017-08-31T11:33:46.070Z,71.58
2017-08-31T11:36:13.292Z,71.59
2017-08-31T11:38:40.473Z,71.59
2017-08-31T11:41:07.635Z,71.59
2017-08-31T11:43:34.810Z,71.58
2017-08-31T11:46:02.022Z,71.56
2017-08-31T11:48:29.197Z,71.59
2017-08-31T11:50:56.360Z,71.61
2017-08-31T11:53:23.522Z,71.61
2017-08-31T11:55:50.678Z,71.60
2017-08-31T11:58:17.857Z,71.58
2017-08-31T12:00:45.015Z,71.59
2017-08-31T12:03:12.171Z,71.59
2017-08-31T12:05:39.334Z,71.58
2017-08-31T12:08:06.517Z,71.58
2017-08-31T12:10:33.695Z,71.59
2017-08-31T12:13:00.878Z,71.59
2017-08-31T12:15:28.054Z,71.58
2017-08-31T12:17:55.274Z,71.58
2017-08-31T12:20:22.456Z,71.59
2017-08-31T12:22:49.614Z,71.61
2017-08-31T12:25:16.771Z,71.61
2017-08-31T12:27:43.924Z,71.63
2017-08-31T12:30:11.101Z,71.64
2017-08-31T12:32:38.318Z,71.62
2017-08-31T12:35:05.483Z,71.63
2017-08-31T12:37:32.639Z,71.62
2017-08-31T12:39:59.823Z,71.60
2017-08-31T12:42:26.979Z,71.60
2017-08-31T12:44:54.130Z,71.62
2017-08-31T12:47:21.296Z,71.63
2017-08-31T12:49:48.461Z,71.64
2017-08-31T12:52:15.641Z,72.14
2017-08-31T12:54:42.805Z,73.47
2017-08-31T12:57:10.009Z,74.21
2017-08-31T12:59:37.173Z,73.84
2017-08-31T13:02:04.328Z,73.57
2017-08-31T13:04:31.487Z,73.43
2017-08-31T13:06:58.665Z,73.51
2017-08-31T13:09:25.862Z,73.48
2017-08-31T13:11:53.801Z,73.44
2017-08-31T13:14:20.955Z,73.30
2017-08-31T13:16:48.127Z,73.21
2017-08-31T13:19:15.301Z,73.11
2017-08-31T13:21:42.476Z,73.01
2017-08-31T13:24:09.660Z,72.93
2017-08-31T13:26:36.828Z,72.87
2017-08-31T13:29:04.001Z,72.81
2017-08-31T13:31:31.176Z,72.79
2017-08-31T13:33:58.340Z,72.72
2017-08-31T13:36:25.519Z,72.70
2017-08-31T13:38:52.694Z,72.65
2017-08-31T13:41:19.876Z,72.64
2017-08-31T13:43:47.051Z,72.64
2017-08-31T13:46:14.226Z,72.62
2017-08-31T13:48:41.396Z,72.59
2017-08-31T13:51:08.573Z,72.55
2017-08-31T13:53:35.744Z,72.53
2017-08-31T13:56:02.914Z,72.52
2017-08-31T13:58:30.107Z,72.52
2017-08-31T14:00:57.289Z,72.50
2017-08-31T14:03:24.472Z,72.48
2017-08-31T14:05:51.716Z,72.47
2017-08-31T14:08:18.902Z,72.47
2017-08-31T14:10:46.069Z,72.45
2017-08-31T14:13:13.221Z,72.42
2017-08-31T14:15:40.383Z,72.39
2017-08-31T14:18:07.546Z,72.39
2017-08-31T14:20:34.724Z,72.38
2017-08-31T14:23:01.882Z,72.38
2017-08-31T14:25:29.062Z,72.37
2017-08-31T14:27:56.211Z,72.37
2017-08-31T14:30:23.363Z,72.36
2017-08-31T14:32:50.542Z,72.47
2017-08-31T14:35:17.717Z,72.53
2017-08-31T14:37:44.874Z,72.97
2017-08-31T14:40:12.048Z,73.43
2017-08-31T14:42:39.212Z,73.60
2017-08-31T14:45:06.392Z,73.59
2017-08-31T14:47:33.562Z,73.66
2017-08-31T14:50:00.736Z,73.65
2017-08-31T14:52:27.914Z,73.47
2017-08-31T14:54:55.067Z,73.43
2017-08-31T14:57:22.214Z,73.50
2017-08-31T14:59:49.369Z,73.42
2017-08-31T15:02:16.526Z,73.46
2017-08-31T15:04:43.682Z,73.45
2017-08-31T15:07:10.838Z,73.43
2017-08-31T15:09:37.998Z,73.41
2017-08-31T15:12:05.173Z,73.43
2017-08-31T15:14:32.351Z,73.42
2017-08-31T15:16:59.506Z,73.42
2017-08-31T15:19:26.673Z,73.45
2017-08-31T15:21:53.856Z,73.33
2017-08-31T15:24:21.780Z,73.24
2017-08-31T15:26:48.934Z,73.13
2017-08-31T15:29:16.113Z,73.04
2017-08-31T15:31:43.530Z,73.04
2017-08-31T15:34:10.757Z,72.96
2017-08-31T15:36:37.936Z,72.96
2017-08-31T15:39:05.091Z,72.97
2017-08-31T15:41:32.306Z,73.03
2017-08-31T15:43:59.463Z,73.05
2017-08-31T15:46:27.438Z,72.93
2017-08-31T15:48:59.638Z,72.88
2017-08-31T15:51:27.043Z,72.92
2017-08-31T15:53:54.222Z,73.10
2017-08-31T15:56:21.380Z,73.19
2017-08-31T15:58:48.557Z,73.18
2017-08-31T16:01:15.723Z,73.19
2017-08-31T16:03:42.909Z,73.15
2017-08-31T16:06:10.091Z,73.14
2017-08-31T16:08:37.265Z,73.13
2017-08-31T16:11:04.441Z,73.13
2017-08-31T16:13:31.645Z,73.13
2017-08-31T16:15:58.799Z,73.11
2017-08-31T16:18:25.970Z,73.10
2017-08-31T16:20:53.299Z,73.10
2017-08-31T16:23:20.485Z,73.06
2017-08-31T16:25:47.656Z,73.06
2017-08-31T16:28:15.388Z,73.04
2017-08-31T16:30:42.597Z,73.05
2017-08-31T16:33:09.785Z,73.03
2017-08-31T16:35:36.965Z,73.02
2017-08-31T16:38:04.124Z,73.00
2017-08-31T16:40:31.284Z,72.94
2017-08-31T16:42:58.482Z,72.79
2017-08-31T16:45:25.810Z,72.27
2017-08-31T16:47:52.987Z,71.58
2017-08-31T16:50:20.162Z,70.84
2017-08-31T16:52:47.339Z,70.06
2017-08-31T16:55:14.509Z,69.72
2017-08-31T16:57:41.719Z,69.60
2017-08-31T17:00:08.887Z,69.98
2017-08-31T17:02:36.057Z,69.95
2017-08-31T17:05:03.259Z,69.91
2017-08-31T17:07:30.437Z,69.80
2017-08-31T17:09:58.365Z,69.55
2017-08-31T17:12:25.531Z,69.40
2017-08-31T17:14:52.693Z,69.29
2017-08-31T17:17:19.848Z,69.07
2017-08-31T17:19:47.033Z,68.93
2017-08-31T17:22:14.187Z,68.65
2017-08-31T17:24:41.603Z,68.58
2017-08-31T17:27:08.786Z,68.55
2017-08-31T17:29:35.958Z,68.62
2017-08-31T17:32:03.135Z,68.86
2017-08-31T17:34:30.312Z,69.00
2017-08-31T17:36:57.492Z,69.13
2017-08-31T17:39:24.660Z,69.26
2017-08-31T17:41:51.842Z,69.34
2017-08-31T17:44:19.025Z,69.35
2017-08-31T17:46:46.204Z,69.35
2017-08-31T17:49:13.380Z,69.40
2017-08-31T17:51:40.563Z,69.47
2017-08-31T17:54:07.727Z,69.52
2017-08-31T17:56:34.887Z,69.59
2017-08-31T17:59:02.052Z,69.70
2017-08-31T18:01:29.219Z,69.75
2017-08-31T18:03:56.378Z,69.76
2017-08-31T18:06:23.567Z,69.76
2017-08-31T18:08:50.767Z,69.71
2017-08-31T18:11:18.709Z,69.54
2017-08-31T18:13:45.871Z,69.26
2017-08-31T18:16:13.034Z,69.07
2017-08-31T18:18:40.191Z,69.09
2017-08-31T18:21:07.380Z,69.09
2017-08-31T18:23:34.561Z,68.86
2017-08-31T18:26:01.741Z,68.83
2017-08-31T18:28:28.970Z,68.83
2017-08-31T18:30:56.136Z,68.85
2017-08-31T18:33:23.303Z,68.91
2017-08-31T18:35:50.463Z,68.98
2017-08-31T18:38:17.620Z,69.02
2017-08-31T18:40:44.778Z,69.07
2017-08-31T18:43:11.947Z,69.11
2017-08-31T18:45:39.121Z,69.18
2017-08-31T18:48:06.299Z,69.27
2017-08-31T18:50:33.460Z,69.34
2017-08-31T18:53:00.619Z,69.32
2017-08-31T18:55:27.788Z,69.36
2017-08-31T18:57:54.948Z,69.41
2017-08-31T19:00:22.120Z,69.44
2017-08-31T19:02:49.299Z,69.50
2017-08-31T19:05:16.461Z,69.54
2017-08-31T19:07:43.630Z,69.60
2017-08-31T19:10:10.814Z,69.63
2017-08-31T19:12:38.042Z,69.70
2017-08-31T19:15:05.234Z,69.71
2017-08-31T19:17:33.368Z,69.74
2017-08-31T19:20:00.593Z,69.79
2017-08-31T19:22:27.776Z,69.80
2017-08-31T19:24:54.956Z,69.82
2017-08-31T19:27:22.137Z,69.83
2017-08-31T19:29:49.311Z,69.87
2017-08-31T19:32:16.511Z,69.91
2017-08-31T19:34:43.693Z,69.96
2017-08-31T19:37:10.905Z,69.99
2017-08-31T19:39:38.290Z,70.02
2017-08-31T19:42:05.557Z,70.01
2017-08-31T19:44:32.742Z,70.02
2017-08-31T19:46:59.922Z,70.06
2017-08-31T19:49:27.161Z,70.14
2017-08-31T19:51:54.425Z,70.16
2017-08-31T19:54:21.613Z,70.06
2017-08-31T19:56:48.801Z,69.91
2017-08-31T19:59:15.972Z,69.86
2017-08-31T20:01:43.159Z,69.89
2017-08-31T20:04:10.718Z,69.98
2017-08-31T20:06:38.058Z,69.96
2017-08-31T20:09:05.246Z,69.95
2017-08-31T20:11:32.456Z,69.94
2017-08-31T20:13:59.626Z,69.98
2017-08-31T20:16:26.825Z,70.03
2017-08-31T20:18:53.991Z,69.99
2017-08-31T20:21:21.203Z,69.97
2017-08-31T20:23:48.676Z,69.98
2017-08-31T20:26:15.954Z,69.99
2017-08-31T20:28:43.129Z,70.03
2017-08-31T20:31:10.585Z,70.08
2017-08-31T20:33:37.752Z,70.11
2017-08-31T20:36:04.936Z,70.13
2017-08-31T20:38:32.341Z,70.17
2017-08-31T20:40:59.528Z,70.18
2017-08-31T20:43:26.981Z,70.20
2017-08-31T20:45:54.254Z,70.22
2017-08-31T20:48:21.410Z,70.24
2017-08-31T20:50:48.567Z,70.27
2017-08-31T20:53:16.759Z,70.28
2017-08-31T20:55:44.023Z,70.29
2017-08-31T20:58:11.292Z,70.30
2017-08-31T21:00:40.505Z,70.32
2017-08-31T21:03:07.861Z,70.33
2017-08-31T21:05:35.287Z,70.34
2017-08-31T21:08:02.451Z,70.34
2017-08-31T21:10:29.853Z,70.34
2017-08-31T21:12:57.112Z,70.36
2017-08-31T21:15:24.307Z,70.37
2017-08-31T21:17:51.710Z,70.37
2017-08-31T21:20:18.901Z,70.39
2017-08-31T21:22:46.179Z,70.39
2017-08-31T21:25:13.552Z,70.40
2017-08-31T21:27:41.885Z,70.41
2017-08-31T21:30:10.429Z,70.41
2017-08-31T21:32:37.684Z,70.42
2017-08-31T21:35:04.981Z,70.42
2017-08-31T21:37:32.450Z,70.43
2017-08-31T21:40:00.190Z,70.43
2017-08-31T21:42:28.366Z,70.44
2017-08-31T21:44:56.573Z,70.44
2017-08-31T21:47:25.158Z,70.46
2017-08-31T21:49:54.089Z,70.46
2017-08-31T21:52:22.159Z,70.46
2017-08-31T21:54:50.584Z,70.48
2017-08-31T21:57:18.053Z,70.48
2017-08-31T21:59:45.229Z,70.48
2017-08-31T22:02:12.548Z,70.49
2017-08-31T22:04:39.734Z,70.49
2017-08-31T22:07:07.236Z,70.50
2017-08-31T22:09:34.408Z,70.50
2017-08-31T22:12:01.614Z,70.51
2017-08-31T22:14:28.786Z,70.51
2017-08-31T22:16:56.085Z,70.51
2017-08-31T22:19:23.249Z,70.52
2017-08-31T22:21:50.705Z,70.52
2017-08-31T22:24:17.954Z,70.52
2017-08-31T22:26:45.115Z,70.53
2017-08-31T22:29:12.400Z,70.53
2017-08-31T22:31:39.570Z,70.53
2017-08-31T22:34:07.073Z,70.54
2017-08-31T22:36:34.238Z,70.54
2017-08-31T22:39:01.467Z,70.54
2017-08-31T22:41:29.457Z,70.54
2017-08-31T22:43:57.113Z,70.55
2017-08-31T22:46:24.337Z,70.55
2017-08-31T22:48:51.514Z,70.55
2017-08-31T22:51:18.899Z,70.55
2017-08-31T22:53:46.091Z,70.55
2017-08-31T22:56:13.259Z,70.57
2017-08-31T22:58:40.461Z,70.55
2017-08-31T23:01:07.615Z,70.57
2017-08-31T23:03:34.785Z,70.58
2017-08-31T23:06:01.967Z,70.58
2017-08-31T23:08:29.149Z,70.58
2017-08-31T23:16:01.006Z,70.58
2017-08-31T23:18:28.167Z,70.58
2017-08-31T23:20:55.814Z,70.58
2017-08-31T23:23:23.034Z,70.58
2017-08-31T23:25:50.201Z,70.58
2017-08-31T23:28:17.475Z,70.59
2017-08-31T23:30:44.868Z,70.59
2017-08-31T23:33:12.053Z,70.60
2017-08-31T23:35:39.212Z,70.60
2017-08-31T23:38:06.374Z,70.60
2017-08-31T23:40:33.553Z,70.60
2017-08-31T23:43:00.724Z,70.61
2017-08-31T23:45:27.908Z,70.60
2017-08-31T23:47:55.073Z,70.60
2017-08-31T23:50:22.272Z,70.61
2017-08-31T23:52:49.478Z,70.61
2017-08-31T23:55:16.660Z,70.61
2017-08-31T23:57:43.811Z,70.61
